sensor_id;sensor_type;location;lat;lon;timestamp;temperature;humidity
41437;DHT22;27178;49.460;10.850;2022-10-31T00:01:01;16.50;80.70
41437;DHT22;27178;49.460;10.850;2022-10-31T00:03:31;16.50;80.90
41437;DHT22;27178;49.460;10.850;2022-10-31T00:06:00;16.50;81.00
41437;DHT22;27178;49.460;10.850;2022-10-31T00:08:28;16.40;81.00
41437;DHT22;27178;49.460;10.850;2022-10-31T00:10:56;16.40;81.00
41437;DHT22;27178;49.460;10.850;2022-10-31T00:13:25;16.40;81.00
41437;DHT22;27178;49.460;10.850;2022-10-31T00:15:54;16.30;81.10
41437;DHT22;27178;49.460;10.850;2022-10-31T00:18:22;16.30;81.40
41437;DHT22;27178;49.460;10.850;2022-10-31T00:20:59;16.30;81.40
41437;DHT22;27178;49.460;10.850;2022-10-31T00:23:28;16.30;81.80
41437;DHT22;27178;49.460;10.850;2022-10-31T00:26:00;16.30;81.70
41437;DHT22;27178;49.460;10.850;2022-10-31T00:28:29;16.30;81.80
41437;DHT22;27178;49.460;10.850;2022-10-31T00:30:59;16.30;81.70
41437;DHT22;27178;49.460;10.850;2022-10-31T00:33:28;16.30;81.90
41437;DHT22;27178;49.460;10.850;2022-10-31T00:35:57;16.30;82.10
41437;DHT22;27178;49.460;10.850;2022-10-31T00:38:26;16.30;82.20
41437;DHT22;27178;49.460;10.850;2022-10-31T00:40:55;16.30;82.50
41437;DHT22;27178;49.460;10.850;2022-10-31T00:43:23;16.20;82.60
41437;DHT22;27178;49.460;10.850;2022-10-31T00:45:52;16.30;82.90
41437;DHT22;27178;49.460;10.850;2022-10-31T00:48:20;16.30;82.90
41437;DHT22;27178;49.460;10.850;2022-10-31T00:50:48;16.30;82.90
41437;DHT22;27178;49.460;10.850;2022-10-31T00:53:17;16.30;82.50
41437;DHT22;27178;49.460;10.850;2022-10-31T00:55:46;16.30;81.80
41437;DHT22;27178;49.460;10.850;2022-10-31T00:58:15;16.30;81.50
41437;DHT22;27178;49.460;10.850;2022-10-31T01:00:43;16.20;81.30
41437;DHT22;27178;49.460;10.850;2022-10-31T01:03:16;16.20;81.20
41437;DHT22;27178;49.460;10.850;2022-10-31T01:05:44;16.20;81.10
41437;DHT22;27178;49.460;10.850;2022-10-31T01:08:13;16.10;80.70
41437;DHT22;27178;49.460;10.850;2022-10-31T01:10:41;16.10;80.80
41437;DHT22;27178;49.460;10.850;2022-10-31T01:13:11;16.10;80.90
41437;DHT22;27178;49.460;10.850;2022-10-31T01:15:40;16.00;80.80
41437;DHT22;27178;49.460;10.850;2022-10-31T01:18:08;16.00;80.90
41437;DHT22;27178;49.460;10.850;2022-10-31T01:20:37;15.90;80.90
41437;DHT22;27178;49.460;10.850;2022-10-31T01:23:05;15.90;81.00
41437;DHT22;27178;49.460;10.850;2022-10-31T01:25:33;15.80;81.00
41437;DHT22;27178;49.460;10.850;2022-10-31T01:28:02;15.80;80.90
41437;DHT22;27178;49.460;10.850;2022-10-31T01:30:32;15.80;80.70
41437;DHT22;27178;49.460;10.850;2022-10-31T01:33:00;15.70;80.70
41437;DHT22;27178;49.460;10.850;2022-10-31T01:35:28;15.70;80.70
41437;DHT22;27178;49.460;10.850;2022-10-31T01:37:57;15.70;80.80
41437;DHT22;27178;49.460;10.850;2022-10-31T01:40:29;15.60;80.70
41437;DHT22;27178;49.460;10.850;2022-10-31T01:42:57;15.60;80.90
41437;DHT22;27178;49.460;10.850;2022-10-31T01:45:26;15.60;81.00
41437;DHT22;27178;49.460;10.850;2022-10-31T01:47:56;15.50;81.10
41437;DHT22;27178;49.460;10.850;2022-10-31T01:50:29;15.50;81.10
41437;DHT22;27178;49.460;10.850;2022-10-31T01:53:00;15.50;81.20
41437;DHT22;27178;49.460;10.850;2022-10-31T01:55:32;15.40;81.10
41437;DHT22;27178;49.460;10.850;2022-10-31T01:58:07;15.40;81.40
41437;DHT22;27178;49.460;10.850;2022-10-31T02:00:37;15.40;81.50
41437;DHT22;27178;49.460;10.850;2022-10-31T02:03:08;15.40;81.40
41437;DHT22;27178;49.460;10.850;2022-10-31T02:05:36;15.40;81.50
41437;DHT22;27178;49.460;10.850;2022-10-31T02:08:08;15.40;81.60
41437;DHT22;27178;49.460;10.850;2022-10-31T02:10:40;15.40;81.80
41437;DHT22;27178;49.460;10.850;2022-10-31T02:13:11;15.40;81.80
41437;DHT22;27178;49.460;10.850;2022-10-31T02:15:43;15.30;81.80
41437;DHT22;27178;49.460;10.850;2022-10-31T02:18:13;15.30;81.90
41437;DHT22;27178;49.460;10.850;2022-10-31T02:20:48;15.30;82.00
41437;DHT22;27178;49.460;10.850;2022-10-31T02:26:42;15.30;82.20
41437;DHT22;27178;49.460;10.850;2022-10-31T02:32:27;15.30;81.70
41437;DHT22;27178;49.460;10.850;2022-10-31T02:34:59;15.30;81.40
41437;DHT22;27178;49.460;10.850;2022-10-31T02:37:34;15.30;81.10
41437;DHT22;27178;49.460;10.850;2022-10-31T02:40:10;15.30;81.00
41437;DHT22;27178;49.460;10.850;2022-10-31T02:42:48;15.20;81.00
41437;DHT22;27178;49.460;10.850;2022-10-31T02:45:24;15.20;81.10
41437;DHT22;27178;49.460;10.850;2022-10-31T02:47:58;15.20;81.20
41437;DHT22;27178;49.460;10.850;2022-10-31T02:50:31;15.20;81.10
41437;DHT22;27178;49.460;10.850;2022-10-31T02:53:02;15.10;80.80
41437;DHT22;27178;49.460;10.850;2022-10-31T02:55:54;15.10;80.50
41437;DHT22;27178;49.460;10.850;2022-10-31T02:58:26;15.00;80.50
41437;DHT22;27178;49.460;10.850;2022-10-31T03:01:06;15.00;80.70
41437;DHT22;27178;49.460;10.850;2022-10-31T03:03:47;15.00;81.10
41437;DHT22;27178;49.460;10.850;2022-10-31T03:06:25;14.90;81.30
41437;DHT22;27178;49.460;10.850;2022-10-31T03:09:02;14.90;81.40
41437;DHT22;27178;49.460;10.850;2022-10-31T03:11:39;14.90;81.40
41437;DHT22;27178;49.460;10.850;2022-10-31T03:14:18;14.90;81.50
41437;DHT22;27178;49.460;10.850;2022-10-31T03:16:50;14.90;81.60
41437;DHT22;27178;49.460;10.850;2022-10-31T03:19:23;14.80;81.40
41437;DHT22;27178;49.460;10.850;2022-10-31T03:21:57;14.80;81.50
41437;DHT22;27178;49.460;10.850;2022-10-31T03:24:31;14.80;81.50
41437;DHT22;27178;49.460;10.850;2022-10-31T03:27:00;14.80;81.50
41437;DHT22;27178;49.460;10.850;2022-10-31T03:29:33;14.80;81.40
41437;DHT22;27178;49.460;10.850;2022-10-31T03:32:06;14.70;81.40
41437;DHT22;27178;49.460;10.850;2022-10-31T03:34:40;14.70;81.20
41437;DHT22;27178;49.460;10.850;2022-10-31T03:37:11;14.70;81.30
41437;DHT22;27178;49.460;10.850;2022-10-31T03:39:44;14.70;81.40
41437;DHT22;27178;49.460;10.850;2022-10-31T03:42:16;14.70;80.90
41437;DHT22;27178;49.460;10.850;2022-10-31T03:44:50;14.70;80.80
41437;DHT22;27178;49.460;10.850;2022-10-31T03:47:22;14.60;80.80
41437;DHT22;27178;49.460;10.850;2022-10-31T03:49:52;14.60;80.70
41437;DHT22;27178;49.460;10.850;2022-10-31T03:52:25;14.60;80.60
41437;DHT22;27178;49.460;10.850;2022-10-31T03:54:59;14.50;80.60
41437;DHT22;27178;49.460;10.850;2022-10-31T03:57:31;14.50;80.60
41437;DHT22;27178;49.460;10.850;2022-10-31T04:00:06;14.40;80.70
41437;DHT22;27178;49.460;10.850;2022-10-31T04:02:38;14.40;80.90
41437;DHT22;27178;49.460;10.850;2022-10-31T04:05:10;14.40;81.00
41437;DHT22;27178;49.460;10.850;2022-10-31T04:07:45;14.40;81.00
41437;DHT22;27178;49.460;10.850;2022-10-31T04:10:15;14.30;81.00
41437;DHT22;27178;49.460;10.850;2022-10-31T04:12:48;14.30;81.10
41437;DHT22;27178;49.460;10.850;2022-10-31T04:15:17;14.30;81.30
41437;DHT22;27178;49.460;10.850;2022-10-31T04:17:48;14.30;81.50
41437;DHT22;27178;49.460;10.850;2022-10-31T04:20:29;14.30;81.30
41437;DHT22;27178;49.460;10.850;2022-10-31T04:22:59;14.30;81.30
41437;DHT22;27178;49.460;10.850;2022-10-31T04:25:28;14.30;81.20
41437;DHT22;27178;49.460;10.850;2022-10-31T04:27:56;14.30;81.30
41437;DHT22;27178;49.460;10.850;2022-10-31T04:30:26;14.20;81.30
41437;DHT22;27178;49.460;10.850;2022-10-31T04:32:54;14.20;81.50
41437;DHT22;27178;49.460;10.850;2022-10-31T04:35:25;14.20;81.50
41437;DHT22;27178;49.460;10.850;2022-10-31T04:37:53;14.20;81.50
41437;DHT22;27178;49.460;10.850;2022-10-31T04:40:21;14.20;81.50
41437;DHT22;27178;49.460;10.850;2022-10-31T04:42:50;14.20;81.50
41437;DHT22;27178;49.460;10.850;2022-10-31T04:45:18;14.20;82.50
41437;DHT22;27178;49.460;10.850;2022-10-31T04:47:47;14.20;81.70
41437;DHT22;27178;49.460;10.850;2022-10-31T04:50:16;14.20;81.70
41437;DHT22;27178;49.460;10.850;2022-10-31T04:52:46;14.20;81.80
41437;DHT22;27178;49.460;10.850;2022-10-31T04:55:15;14.20;81.90
41437;DHT22;27178;49.460;10.850;2022-10-31T04:57:45;14.20;81.70
41437;DHT22;27178;49.460;10.850;2022-10-31T05:00:15;14.20;81.70
41437;DHT22;27178;49.460;10.850;2022-10-31T05:02:44;14.20;81.80
41437;DHT22;27178;49.460;10.850;2022-10-31T05:05:13;14.20;81.70
41437;DHT22;27178;49.460;10.850;2022-10-31T05:07:43;14.20;81.50
41437;DHT22;27178;49.460;10.850;2022-10-31T05:10:15;14.20;81.50
41437;DHT22;27178;49.460;10.850;2022-10-31T05:12:46;14.10;81.50
41437;DHT22;27178;49.460;10.850;2022-10-31T05:15:15;14.10;81.30
41437;DHT22;27178;49.460;10.850;2022-10-31T05:17:44;14.10;81.00
41437;DHT22;27178;49.460;10.850;2022-10-31T05:20:15;14.10;80.60
41437;DHT22;27178;49.460;10.850;2022-10-31T05:22:43;14.00;80.20
41437;DHT22;27178;49.460;10.850;2022-10-31T05:25:14;14.00;80.00
41437;DHT22;27178;49.460;10.850;2022-10-31T05:27:44;13.90;80.00
41437;DHT22;27178;49.460;10.850;2022-10-31T05:30:14;13.80;80.00
41437;DHT22;27178;49.460;10.850;2022-10-31T05:32:44;13.80;80.10
41437;DHT22;27178;49.460;10.850;2022-10-31T05:35:14;13.70;80.00
41437;DHT22;27178;49.460;10.850;2022-10-31T05:37:43;13.70;80.10
41437;DHT22;27178;49.460;10.850;2022-10-31T05:40:14;13.60;80.20
41437;DHT22;27178;49.460;10.850;2022-10-31T05:42:51;13.60;80.60
41437;DHT22;27178;49.460;10.850;2022-10-31T05:45:20;13.60;80.90
41437;DHT22;27178;49.460;10.850;2022-10-31T05:47:54;13.50;81.00
41437;DHT22;27178;49.460;10.850;2022-10-31T05:50:25;13.50;81.30
41437;DHT22;27178;49.460;10.850;2022-10-31T05:52:55;13.50;81.30
41437;DHT22;27178;49.460;10.850;2022-10-31T05:55:26;13.50;81.40
41437;DHT22;27178;49.460;10.850;2022-10-31T05:57:55;13.50;81.60
41437;DHT22;27178;49.460;10.850;2022-10-31T06:00:25;13.50;81.60
41437;DHT22;27178;49.460;10.850;2022-10-31T06:02:58;13.50;81.80
41437;DHT22;27178;49.460;10.850;2022-10-31T06:05:27;13.50;81.80
41437;DHT22;27178;49.460;10.850;2022-10-31T06:07:56;13.50;81.80
41437;DHT22;27178;49.460;10.850;2022-10-31T06:10:27;13.50;81.80
41437;DHT22;27178;49.460;10.850;2022-10-31T06:12:55;13.50;81.70
41437;DHT22;27178;49.460;10.850;2022-10-31T06:15:23;13.50;81.60
41437;DHT22;27178;49.460;10.850;2022-10-31T06:18:00;13.50;81.70
41437;DHT22;27178;49.460;10.850;2022-10-31T06:20:29;13.50;82.10
41437;DHT22;27178;49.460;10.850;2022-10-31T06:22:57;13.50;82.20
41437;DHT22;27178;49.460;10.850;2022-10-31T06:25:28;13.50;82.10
41437;DHT22;27178;49.460;10.850;2022-10-31T06:27:57;13.50;81.90
41437;DHT22;27178;49.460;10.850;2022-10-31T06:30:25;13.40;81.70
41437;DHT22;27178;49.460;10.850;2022-10-31T06:32:54;13.40;81.60
41437;DHT22;27178;49.460;10.850;2022-10-31T06:35:22;13.40;81.50
41437;DHT22;27178;49.460;10.850;2022-10-31T06:37:51;13.40;81.50
41437;DHT22;27178;49.460;10.850;2022-10-31T06:40:20;13.30;81.50
41437;DHT22;27178;49.460;10.850;2022-10-31T06:42:57;13.30;81.50
41437;DHT22;27178;49.460;10.850;2022-10-31T06:45:26;13.30;81.60
41437;DHT22;27178;49.460;10.850;2022-10-31T06:47:55;13.30;81.40
41437;DHT22;27178;49.460;10.850;2022-10-31T06:50:44;13.30;81.50
41437;DHT22;27178;49.460;10.850;2022-10-31T06:53:12;13.30;81.50
41437;DHT22;27178;49.460;10.850;2022-10-31T06:55:42;13.20;81.50
41437;DHT22;27178;49.460;10.850;2022-10-31T06:58:11;13.20;81.50
41437;DHT22;27178;49.460;10.850;2022-10-31T07:00:40;13.20;81.70
41437;DHT22;27178;49.460;10.850;2022-10-31T07:03:10;13.20;82.00
41437;DHT22;27178;49.460;10.850;2022-10-31T07:05:39;13.20;82.10
41437;DHT22;27178;49.460;10.850;2022-10-31T07:08:10;13.20;82.10
41437;DHT22;27178;49.460;10.850;2022-10-31T07:10:39;13.20;82.10
41437;DHT22;27178;49.460;10.850;2022-10-31T07:13:12;13.20;82.20
41437;DHT22;27178;49.460;10.850;2022-10-31T07:15:42;13.10;82.30
41437;DHT22;27178;49.460;10.850;2022-10-31T07:18:11;13.10;82.50
41437;DHT22;27178;49.460;10.850;2022-10-31T07:20:40;13.20;82.60
41437;DHT22;27178;49.460;10.850;2022-10-31T07:23:09;13.20;82.70
41437;DHT22;27178;49.460;10.850;2022-10-31T07:25:39;13.20;82.80
41437;DHT22;27178;49.460;10.850;2022-10-31T07:28:08;13.20;82.90
41437;DHT22;27178;49.460;10.850;2022-10-31T07:30:38;13.20;83.00
41437;DHT22;27178;49.460;10.850;2022-10-31T07:33:08;13.20;83.20
41437;DHT22;27178;49.460;10.850;2022-10-31T07:35:37;13.30;83.30
41437;DHT22;27178;49.460;10.850;2022-10-31T07:38:09;13.30;83.30
41437;DHT22;27178;49.460;10.850;2022-10-31T07:40:38;13.30;83.40
41437;DHT22;27178;49.460;10.850;2022-10-31T07:43:06;13.30;83.40
41437;DHT22;27178;49.460;10.850;2022-10-31T07:45:41;13.40;83.50
41437;DHT22;27178;49.460;10.850;2022-10-31T07:48:09;13.40;83.60
41437;DHT22;27178;49.460;10.850;2022-10-31T07:50:38;13.40;83.70
41437;DHT22;27178;49.460;10.850;2022-10-31T07:53:10;13.40;83.70
41437;DHT22;27178;49.460;10.850;2022-10-31T07:55:38;13.50;84.10
41437;DHT22;27178;49.460;10.850;2022-10-31T07:58:10;13.50;84.20
41437;DHT22;27178;49.460;10.850;2022-10-31T08:00:45;13.50;84.30
41437;DHT22;27178;49.460;10.850;2022-10-31T08:03:16;13.60;84.50
41437;DHT22;27178;49.460;10.850;2022-10-31T08:05:44;13.60;84.60
41437;DHT22;27178;49.460;10.850;2022-10-31T08:08:14;13.70;84.80
41437;DHT22;27178;49.460;10.850;2022-10-31T08:10:44;13.70;84.90
41437;DHT22;27178;49.460;10.850;2022-10-31T08:13:13;13.70;85.00
41437;DHT22;27178;49.460;10.850;2022-10-31T08:15:44;13.80;85.20
41437;DHT22;27178;49.460;10.850;2022-10-31T08:18:16;13.80;85.30
41437;DHT22;27178;49.460;10.850;2022-10-31T08:20:45;13.90;85.30
41437;DHT22;27178;49.460;10.850;2022-10-31T08:23:13;13.90;85.40
41437;DHT22;27178;49.460;10.850;2022-10-31T08:25:43;14.00;85.20
41437;DHT22;27178;49.460;10.850;2022-10-31T08:28:14;14.00;85.20
41437;DHT22;27178;49.460;10.850;2022-10-31T08:30:44;14.10;85.20
41437;DHT22;27178;49.460;10.850;2022-10-31T08:33:14;14.10;85.20
41437;DHT22;27178;49.460;10.850;2022-10-31T08:35:43;14.10;85.20
41437;DHT22;27178;49.460;10.850;2022-10-31T08:38:12;14.20;85.20
41437;DHT22;27178;49.460;10.850;2022-10-31T08:40:41;14.20;85.50
41437;DHT22;27178;49.460;10.850;2022-10-31T08:43:13;14.30;85.60
41437;DHT22;27178;49.460;10.850;2022-10-31T08:45:44;14.30;85.60
41437;DHT22;27178;49.460;10.850;2022-10-31T08:48:13;14.40;85.60
41437;DHT22;27178;49.460;10.850;2022-10-31T08:50:43;14.40;85.70
41437;DHT22;27178;49.460;10.850;2022-10-31T08:53:14;14.50;85.80
41437;DHT22;27178;49.460;10.850;2022-10-31T08:55:44;14.50;85.80
41437;DHT22;27178;49.460;10.850;2022-10-31T08:58:15;14.60;85.90
41437;DHT22;27178;49.460;10.850;2022-10-31T09:00:46;14.60;86.00
41437;DHT22;27178;49.460;10.850;2022-10-31T09:03:17;14.70;86.00
41437;DHT22;27178;49.460;10.850;2022-10-31T09:05:46;14.80;86.10
41437;DHT22;27178;49.460;10.850;2022-10-31T09:08:16;14.80;86.00
41437;DHT22;27178;49.460;10.850;2022-10-31T09:10:45;14.90;86.10
41437;DHT22;27178;49.460;10.850;2022-10-31T09:13:16;14.90;86.00
41437;DHT22;27178;49.460;10.850;2022-10-31T09:15:48;15.00;85.90
41437;DHT22;27178;49.460;10.850;2022-10-31T09:18:18;15.10;85.80
41437;DHT22;27178;49.460;10.850;2022-10-31T09:20:48;15.20;85.70
41437;DHT22;27178;49.460;10.850;2022-10-31T09:23:18;15.20;85.50
41437;DHT22;27178;49.460;10.850;2022-10-31T09:25:48;15.20;85.40
41437;DHT22;27178;49.460;10.850;2022-10-31T09:28:18;15.30;85.50
41437;DHT22;27178;49.460;10.850;2022-10-31T09:30:50;15.30;85.40
41437;DHT22;27178;49.460;10.850;2022-10-31T09:33:19;15.30;85.30
41437;DHT22;27178;49.460;10.850;2022-10-31T09:35:49;15.40;85.30
41437;DHT22;27178;49.460;10.850;2022-10-31T09:38:18;15.40;85.30
41437;DHT22;27178;49.460;10.850;2022-10-31T09:40:52;15.50;85.30
41437;DHT22;27178;49.460;10.850;2022-10-31T09:43:27;15.50;85.40
41437;DHT22;27178;49.460;10.850;2022-10-31T09:46:03;15.60;85.50
41437;DHT22;27178;49.460;10.850;2022-10-31T09:48:49;15.60;85.50
41437;DHT22;27178;49.460;10.850;2022-10-31T09:51:22;15.70;85.80
41437;DHT22;27178;49.460;10.850;2022-10-31T09:53:53;15.80;85.70
41437;DHT22;27178;49.460;10.850;2022-10-31T09:56:25;15.80;85.80
41437;DHT22;27178;49.460;10.850;2022-10-31T09:58:56;15.90;85.80
41437;DHT22;27178;49.460;10.850;2022-10-31T10:01:40;15.90;85.80
41437;DHT22;27178;49.460;10.850;2022-10-31T10:04:26;16.00;85.90
41437;DHT22;27178;49.460;10.850;2022-10-31T10:06:56;16.10;85.90
41437;DHT22;27178;49.460;10.850;2022-10-31T10:09:26;16.10;85.70
41437;DHT22;27178;49.460;10.850;2022-10-31T10:12:02;16.20;85.60
41437;DHT22;27178;49.460;10.850;2022-10-31T10:14:44;16.30;85.90
41437;DHT22;27178;49.460;10.850;2022-10-31T10:17:24;16.30;86.10
41437;DHT22;27178;49.460;10.850;2022-10-31T10:20:15;16.40;86.10
41437;DHT22;27178;49.460;10.850;2022-10-31T10:22:52;16.50;86.90
41437;DHT22;27178;49.460;10.850;2022-10-31T10:25:23;16.50;86.10
41437;DHT22;27178;49.460;10.850;2022-10-31T10:28:01;16.60;86.20
41437;DHT22;27178;49.460;10.850;2022-10-31T10:30:35;16.70;86.50
41437;DHT22;27178;49.460;10.850;2022-10-31T10:33:10;16.70;86.50
41437;DHT22;27178;49.460;10.850;2022-10-31T10:35:42;16.80;86.60
41437;DHT22;27178;49.460;10.850;2022-10-31T10:38:17;16.90;86.30
41437;DHT22;27178;49.460;10.850;2022-10-31T10:40:47;16.90;86.10
41437;DHT22;27178;49.460;10.850;2022-10-31T10:43:22;17.00;86.10
41437;DHT22;27178;49.460;10.850;2022-10-31T10:46:00;17.10;86.30
41437;DHT22;27178;49.460;10.850;2022-10-31T10:48:57;17.10;86.20
41437;DHT22;27178;49.460;10.850;2022-10-31T10:51:31;17.20;86.00
41437;DHT22;27178;49.460;10.850;2022-10-31T11:00:19;17.50;85.80
41437;DHT22;27178;49.460;10.850;2022-10-31T11:02:48;17.50;85.50
41437;DHT22;27178;49.460;10.850;2022-10-31T11:05:30;17.60;85.60
41437;DHT22;27178;49.460;10.850;2022-10-31T11:08:02;17.70;85.40
41437;DHT22;27178;49.460;10.850;2022-10-31T11:10:31;17.70;85.40
41437;DHT22;27178;49.460;10.850;2022-10-31T11:13:04;17.80;85.30
41437;DHT22;27178;49.460;10.850;2022-10-31T11:15:50;17.90;85.20
41437;DHT22;27178;49.460;10.850;2022-10-31T11:18:22;17.90;85.10
41437;DHT22;27178;49.460;10.850;2022-10-31T11:20:55;18.00;85.00
41437;DHT22;27178;49.460;10.850;2022-10-31T11:23:25;18.10;85.00
41437;DHT22;27178;49.460;10.850;2022-10-31T11:25:56;18.20;85.00
41437;DHT22;27178;49.460;10.850;2022-10-31T11:28:26;18.20;84.70
41437;DHT22;27178;49.460;10.850;2022-10-31T11:30:58;18.30;84.60
41437;DHT22;27178;49.460;10.850;2022-10-31T11:33:29;18.40;84.50
41437;DHT22;27178;49.460;10.850;2022-10-31T11:36:01;18.50;84.50
41437;DHT22;27178;49.460;10.850;2022-10-31T11:38:35;18.50;84.30
41437;DHT22;27178;49.460;10.850;2022-10-31T11:41:12;18.60;83.80
41437;DHT22;27178;49.460;10.850;2022-10-31T11:43:46;18.70;83.50
41437;DHT22;27178;49.460;10.850;2022-10-31T11:46:21;18.80;83.60
41437;DHT22;27178;49.460;10.850;2022-10-31T11:48:51;18.80;83.40
41437;DHT22;27178;49.460;10.850;2022-10-31T11:51:25;18.90;83.40
41437;DHT22;27178;49.460;10.850;2022-10-31T11:53:57;19.00;83.20
41437;DHT22;27178;49.460;10.850;2022-10-31T11:56:37;19.10;83.10
41437;DHT22;27178;49.460;10.850;2022-10-31T11:59:18;19.20;82.90
41437;DHT22;27178;49.460;10.850;2022-10-31T12:01:48;19.30;82.60
41437;DHT22;27178;49.460;10.850;2022-10-31T12:04:17;19.30;82.60
41437;DHT22;27178;49.460;10.850;2022-10-31T12:06:47;19.40;82.20
41437;DHT22;27178;49.460;10.850;2022-10-31T12:09:21;19.50;82.10
41437;DHT22;27178;49.460;10.850;2022-10-31T12:12:10;19.60;81.70
41437;DHT22;27178;49.460;10.850;2022-10-31T12:14:53;19.60;81.10
41437;DHT22;27178;49.460;10.850;2022-10-31T12:17:26;19.70;81.00
41437;DHT22;27178;49.460;10.850;2022-10-31T12:20:03;19.80;81.60
41437;DHT22;27178;49.460;10.850;2022-10-31T12:22:41;19.80;80.90
41437;DHT22;27178;49.460;10.850;2022-10-31T12:25:28;19.90;80.70
41437;DHT22;27178;49.460;10.850;2022-10-31T12:28:28;20.00;80.60
41437;DHT22;27178;49.460;10.850;2022-10-31T12:31:22;20.10;80.30
41437;DHT22;27178;49.460;10.850;2022-10-31T12:34:00;20.30;80.30
41437;DHT22;27178;49.460;10.850;2022-10-31T12:36:42;20.30;80.30
41437;DHT22;27178;49.460;10.850;2022-10-31T12:39:24;20.40;79.60
41437;DHT22;27178;49.460;10.850;2022-10-31T12:41:57;20.50;79.40
41437;DHT22;27178;49.460;10.850;2022-10-31T12:44:51;20.60;79.90
41437;DHT22;27178;49.460;10.850;2022-10-31T12:47:37;20.70;79.10
41437;DHT22;27178;49.460;10.850;2022-10-31T12:50:35;20.70;78.70
41437;DHT22;27178;49.460;10.850;2022-10-31T12:53:19;20.70;78.10
41437;DHT22;27178;49.460;10.850;2022-10-31T12:56:02;20.80;78.50
41437;DHT22;27178;49.460;10.850;2022-10-31T12:58:38;20.70;78.50
41437;DHT22;27178;49.460;10.850;2022-10-31T13:01:09;20.70;78.70
41437;DHT22;27178;49.460;10.850;2022-10-31T13:03:44;20.70;78.60
41437;DHT22;27178;49.460;10.850;2022-10-31T13:06:19;20.70;78.40
41437;DHT22;27178;49.460;10.850;2022-10-31T13:08:50;20.70;78.30
41437;DHT22;27178;49.460;10.850;2022-10-31T13:11:23;20.60;78.10
41437;DHT22;27178;49.460;10.850;2022-10-31T13:13:59;20.60;78.10
41437;DHT22;27178;49.460;10.850;2022-10-31T13:16:32;20.60;77.80
41437;DHT22;27178;49.460;10.850;2022-10-31T13:19:08;20.60;77.90
41437;DHT22;27178;49.460;10.850;2022-10-31T13:21:44;20.50;77.70
41437;DHT22;27178;49.460;10.850;2022-10-31T13:24:20;20.50;77.80
41437;DHT22;27178;49.460;10.850;2022-10-31T13:26:53;20.50;77.90
41437;DHT22;27178;49.460;10.850;2022-10-31T13:29:26;20.50;77.80
41437;DHT22;27178;49.460;10.850;2022-10-31T13:31:59;20.40;77.90
41437;DHT22;27178;49.460;10.850;2022-10-31T13:34:31;20.40;78.10
41437;DHT22;27178;49.460;10.850;2022-10-31T13:37:06;20.40;78.20
41437;DHT22;27178;49.460;10.850;2022-10-31T13:40:03;20.40;78.10
41437;DHT22;27178;49.460;10.850;2022-10-31T13:42:45;20.50;78.10
41437;DHT22;27178;49.460;10.850;2022-10-31T13:45:17;20.50;78.20
41437;DHT22;27178;49.460;10.850;2022-10-31T13:47:56;20.60;78.80
41437;DHT22;27178;49.460;10.850;2022-10-31T13:50:27;20.60;78.90
41437;DHT22;27178;49.460;10.850;2022-10-31T13:53:11;20.60;78.80
41437;DHT22;27178;49.460;10.850;2022-10-31T13:55:42;20.70;78.30
41437;DHT22;27178;49.460;10.850;2022-10-31T13:58:23;20.70;78.30
41437;DHT22;27178;49.460;10.850;2022-10-31T14:01:04;20.80;77.80
41437;DHT22;27178;49.460;10.850;2022-10-31T14:03:40;21.90;78.60
41437;DHT22;27178;49.460;10.850;2022-10-31T14:06:37;20.80;77.70
41437;DHT22;27178;49.460;10.850;2022-10-31T14:09:18;20.90;77.60
41437;DHT22;27178;49.460;10.850;2022-10-31T14:11:47;20.90;77.50
41437;DHT22;27178;49.460;10.850;2022-10-31T14:14:18;20.80;77.70
41437;DHT22;27178;49.460;10.850;2022-10-31T14:16:54;20.80;77.70
41437;DHT22;27178;49.460;10.850;2022-10-31T14:19:25;20.80;78.80
41437;DHT22;27178;49.460;10.850;2022-10-31T14:21:54;20.80;78.10
41437;DHT22;27178;49.460;10.850;2022-10-31T14:24:34;20.80;78.30
41437;DHT22;27178;49.460;10.850;2022-10-31T14:27:30;20.70;77.90
41437;DHT22;27178;49.460;10.850;2022-10-31T14:29:54;20.70;77.80
41437;DHT22;27178;49.460;10.850;2022-10-31T14:32:24;20.60;77.60
41437;DHT22;27178;49.460;10.850;2022-10-31T14:34:56;20.60;77.80
41437;DHT22;27178;49.460;10.850;2022-10-31T14:37:51;20.60;77.70
41437;DHT22;27178;49.460;10.850;2022-10-31T14:40:29;20.60;77.70
41437;DHT22;27178;49.460;10.850;2022-10-31T14:43:21;20.60;78.20
41437;DHT22;27178;49.460;10.850;2022-10-31T14:46:00;20.50;77.80
41437;DHT22;27178;49.460;10.850;2022-10-31T14:48:43;20.50;78.00
41437;DHT22;27178;49.460;10.850;2022-10-31T14:51:20;20.40;77.90
41437;DHT22;27178;49.460;10.850;2022-10-31T14:53:50;20.30;78.40
41437;DHT22;27178;49.460;10.850;2022-10-31T14:56:24;20.40;78.50
41437;DHT22;27178;49.460;10.850;2022-10-31T14:58:56;20.30;78.40
41437;DHT22;27178;49.460;10.850;2022-10-31T15:01:28;20.20;78.20
41437;DHT22;27178;49.460;10.850;2022-10-31T15:04:00;20.20;78.30
41437;DHT22;27178;49.460;10.850;2022-10-31T15:06:55;20.20;78.40
41437;DHT22;27178;49.460;10.850;2022-10-31T15:09:29;20.10;78.30
41437;DHT22;27178;49.460;10.850;2022-10-31T15:11:58;20.10;78.30
41437;DHT22;27178;49.460;10.850;2022-10-31T15:14:29;20.10;79.00
41437;DHT22;27178;49.460;10.850;2022-10-31T15:17:03;20.10;79.00
41437;DHT22;27178;49.460;10.850;2022-10-31T15:19:34;20.00;79.40
41437;DHT22;27178;49.460;10.850;2022-10-31T15:22:03;20.00;79.80
41437;DHT22;27178;49.460;10.850;2022-10-31T15:24:34;20.00;79.50
41437;DHT22;27178;49.460;10.850;2022-10-31T15:27:03;19.90;79.70
41437;DHT22;27178;49.460;10.850;2022-10-31T15:29:32;19.90;79.60
41437;DHT22;27178;49.460;10.850;2022-10-31T15:32:18;19.90;79.60
41437;DHT22;27178;49.460;10.850;2022-10-31T15:34:47;19.90;79.70
41437;DHT22;27178;49.460;10.850;2022-10-31T15:37:16;19.90;79.60
41437;DHT22;27178;49.460;10.850;2022-10-31T15:39:46;19.80;80.00
41437;DHT22;27178;49.460;10.850;2022-10-31T15:42:20;19.80;79.90
41437;DHT22;27178;49.460;10.850;2022-10-31T15:44:51;19.80;80.10
41437;DHT22;27178;49.460;10.850;2022-10-31T15:47:23;19.70;80.10
41437;DHT22;27178;49.460;10.850;2022-10-31T15:49:53;19.70;80.10
41437;DHT22;27178;49.460;10.850;2022-10-31T15:52:28;19.70;80.10
41437;DHT22;27178;49.460;10.850;2022-10-31T15:54:59;19.60;80.20
41437;DHT22;27178;49.460;10.850;2022-10-31T15:57:29;19.60;80.30
41437;DHT22;27178;49.460;10.850;2022-10-31T15:59:58;19.60;80.30
41437;DHT22;27178;49.460;10.850;2022-10-31T16:02:28;19.50;80.30